Time;durP1;ratioP1;P1;durP2;ratioP2;P2;SDS_P1;SDS_P2;PMS_P1;PMS_P2;Temp;Humidity;BMP_temperature;BMP_pressure;BME280_temperature;BME280_humidity;BME280_pressure;Samples;Min_cycle;Max_cycle;Signal;HPM_P1;HPM_P2
2023/01/14 00:00:23;;;;;;;9.80;2.17;;;4.70;1.00;;;;;;5059687;28;20170;-37
2023/01/14 00:02:49;;;;;;;3.33;2.00;;;4.70;1.00;;;;;;5060660;28;20549;-37
2023/01/14 00:05:14;;;;;;;5.83;2.43;;;4.60;1.00;;;;;;5060187;28;20268;-37
2023/01/14 00:07:40;;;;;;;11.83;3.27;;;4.60;1.00;;;;;;5059202;28;20178;-38
2023/01/14 00:10:06;;;;;;;5.67;2.07;;;4.60;1.00;;;;;;5058144;28;20178;-37
2023/01/14 00:12:32;;;;;;;4.20;2.47;;;4.60;1.00;;;;;;5058807;28;20465;-37
2023/01/14 00:14:58;;;;;;;5.40;2.67;;;4.60;1.00;;;;;;5059455;28;20483;-38
2023/01/14 00:17:24;;;;;;;3.77;2.30;;;4.60;1.00;;;;;;5059782;28;20170;-37
2023/01/14 00:19:50;;;;;;;6.90;2.30;;;4.50;1.00;;;;;;5059551;28;20432;-36
2023/01/14 00:22:15;;;;;;;7.20;1.63;;;4.50;1.00;;;;;;5041635;28;20474;-40
2023/01/14 00:24:41;;;;;;;8.63;2.70;;;4.60;1.00;;;;;;5060573;28;20241;-38
2023/01/14 00:27:11;;;;;;;7.23;2.30;;;4.60;1.00;;;;;;5059223;28;20431;-38
2023/01/14 00:29:37;;;;;;;7.30;1.93;;;4.70;1.00;;;;;;5061158;28;20253;-39
2023/01/14 00:32:05;;;;;;;11.10;2.20;;;4.70;1.00;;;;;;5059166;28;20440;-37
2023/01/14 00:34:32;;;;;;;4.07;1.63;;;4.70;1.00;;;;;;5058969;28;20178;-37
2023/01/14 00:36:58;;;;;;;7.47;1.73;;;4.80;99.90;;;;;;5057429;28;20415;-37
2023/01/14 00:39:25;;;;;;;5.30;2.30;;;4.70;99.90;;;;;;5057396;28;20432;-39
2023/01/14 00:41:51;;;;;;;6.63;2.63;;;4.80;99.90;;;;;;5058091;28;20408;-38
2023/01/14 00:44:17;;;;;;;7.10;2.17;;;4.70;99.90;;;;;;5058061;28;20534;-38
2023/01/14 00:46:43;;;;;;;6.67;2.00;;;4.70;99.90;;;;;;5057160;28;20427;-39
2023/01/14 00:49:16;;;;;;;4.73;1.93;;;4.60;1.00;;;;;;5058029;28;20480;-38
2023/01/14 00:51:42;;;;;;;3.90;2.10;;;4.70;99.90;;;;;;5059668;28;20261;-38
2023/01/14 00:54:07;;;;;;;4.73;2.30;;;4.80;99.90;;;;;;5058503;28;20420;-37
2023/01/14 00:56:33;;;;;;;5.77;2.10;;;4.70;99.90;;;;;;5058721;28;20911;-38
2023/01/14 00:58:59;;;;;;;11.70;2.43;;;4.80;99.90;;;;;;5058889;28;20174;-38
2023/01/14 01:01:25;;;;;;;6.77;2.10;;;4.80;99.90;;;;;;5058549;28;20561;-37
2023/01/14 01:03:53;;;;;;;6.00;1.20;;;4.80;99.90;;;;;;5058789;28;20174;-36
2023/01/14 01:06:20;;;;;;;5.23;2.10;;;5.10;99.90;;;;;;5058599;28;20897;-38
2023/01/14 01:08:46;;;;;;;4.90;1.43;;;5.60;99.90;;;;;;5057708;28;20716;-38
2023/01/14 01:11:12;;;;;;;4.10;1.90;;;6.10;1.00;;;;;;5056828;28;20432;-37
2023/01/14 01:13:38;;;;;;;8.90;2.00;;;6.30;99.90;;;;;;5039668;28;20882;-38
2023/01/14 01:16:16;;;;;;;8.00;1.93;;;6.60;10.20;;;;;;5057086;28;20621;-37
2023/01/14 01:18:42;;;;;;;10.20;2.07;;;6.80;1.00;;;;;;5057568;28;20835;-37
2023/01/14 01:21:14;;;;;;;6.63;1.87;;;7.00;27.20;;;;;;5058374;28;20423;-37
2023/01/14 01:23:40;;;;;;;5.30;2.00;;;7.20;1.00;;;;;;5059037;28;20413;-37
2023/01/14 01:26:10;;;;;;;5.70;2.53;;;7.20;1.00;;;;;;5057485;28;20501;-39
2023/01/14 01:28:36;;;;;;;7.50;1.70;;;7.10;99.90;;;;;;5058267;28;20200;-37
2023/01/14 01:31:05;;;;;;;6.50;1.83;;;6.70;99.90;;;;;;5057873;28;20408;-37
2023/01/14 01:33:32;;;;;;;4.73;2.30;;;6.30;1.00;;;;;;5057097;28;20174;-36
2023/01/14 01:36:02;;;;;;;6.43;2.20;;;5.90;99.90;;;;;;5057234;28;20489;-37
2023/01/14 01:38:29;;;;;;;9.97;1.67;;;5.50;99.90;;;;;;5057866;28;20431;-37
2023/01/14 01:40:55;;;;;;;5.27;1.57;;;5.30;1.00;;;;;;5058420;28;20416;-38
2023/01/14 01:43:24;;;;;;;6.50;2.10;;;5.10;6.40;;;;;;5058194;28;20858;-36
2023/01/14 01:45:50;;;;;;;5.37;1.50;;;5.00;99.90;;;;;;5058322;28;20417;-36
2023/01/14 01:48:24;;;;;;;7.10;2.00;;;4.80;1.00;;;;;;5057860;28;20533;-37
2023/01/14 01:51:02;;;;;;;6.70;2.13;;;4.70;1.00;;;;;;5057813;28;20841;-36
2023/01/14 01:53:28;;;;;;;4.20;1.60;;;4.60;1.00;;;;;;5057854;28;20746;-37
2023/01/14 01:55:55;;;;;;;6.53;2.20;;;4.60;1.00;;;;;;5056856;28;20518;-38
2023/01/14 01:58:22;;;;;;;5.70;2.27;;;4.60;30.80;;;;;;5056568;28;20525;-37
2023/01/14 02:00:47;;;;;;;5.87;3.00;;;4.60;53.30;;;;;;5057657;28;20423;-36
2023/01/14 02:03:21;;;;;;;6.50;2.93;;;4.60;39.20;;;;;;5057381;28;20428;-36
2023/01/14 02:05:47;;;;;;;9.27;2.27;;;4.50;81.10;;;;;;5055728;28;20174;-36
2023/01/14 02:08:13;;;;;;;3.40;1.53;;;4.50;89.30;;;;;;5055514;28;20455;-37
2023/01/14 02:11:09;;;;;;;7.70;2.23;;;4.50;56.50;;;;;;5056615;28;20474;-36
2023/01/14 02:14:05;;;;;;;5.60;1.90;;;4.50;57.40;;;;;;5055464;28;20477;-37
2023/01/14 02:16:41;;;;;;;8.53;2.07;;;4.50;92.60;;;;;;5055795;28;20463;-36
2023/01/14 02:19:32;;;;;;;6.43;1.37;;;4.50;92.80;;;;;;5056881;28;20443;-36
2023/01/14 02:22:19;;;;;;;4.00;1.80;;;4.50;47.00;;;;;;5057230;28;20509;-36
2023/01/14 02:25:32;;;;;;;5.20;1.80;;;4.50;1.00;;;;;;5057090;28;20416;-36
2023/01/14 02:28:01;;;;;;;5.63;1.83;;;4.50;1.00;;;;;;5047901;28;20456;-37
2023/01/14 02:30:51;;;;;;;9.27;2.07;;;4.50;1.00;;;;;;5056587;28;20484;-36
2023/01/14 02:33:29;;;;;;;6.33;1.97;;;4.50;1.00;;;;;;5056996;28;20432;-36
2023/01/14 02:36:16;;;;;;;7.97;1.83;;;4.40;1.00;;;;;;5060336;28;20470;-36
2023/01/14 02:39:00;;;;;;;6.27;1.60;;;4.40;1.00;;;;;;5059944;28;20435;-36
2023/01/14 02:44:39;;;;;;;5.53;1.40;;;4.30;1.00;;;;;;4987921;28;20457;-36
2023/01/14 02:47:15;;;;;;;4.90;1.70;;;4.20;1.00;;;;;;5049355;28;20510;-37
2023/01/14 02:49:45;;;;;;;5.17;1.80;;;4.20;1.00;;;;;;5058903;28;20814;-37
2023/01/14 02:52:13;;;;;;;6.23;1.10;;;4.20;1.00;;;;;;5059222;28;20712;-37
2023/01/14 02:54:39;;;;;;;5.67;1.70;;;4.20;1.00;;;;;;5060346;28;20439;-37
2023/01/14 02:57:47;;;;;;;3.83;1.60;;;4.20;1.00;;;;;;5059981;28;20404;-36
2023/01/14 03:00:28;;;;;;;4.70;1.60;;;4.20;1.00;;;;;;5058893;28;20273;-37
2023/01/14 03:03:41;;;;;;;7.63;1.93;;;4.20;1.00;;;;;;5057704;28;20696;-36
2023/01/14 03:06:36;;;;;;;6.60;1.80;;;4.20;1.00;;;;;;5059477;28;20416;-36
2023/01/14 03:09:26;;;;;;;4.80;1.90;;;4.20;1.00;;;;;;5059641;28;20432;-36
2023/01/14 03:11:56;;;;;;;5.40;1.80;;;4.20;1.00;;;;;;5059773;28;20512;-36
2023/01/14 03:14:32;;;;;;;5.13;1.37;;;4.20;1.00;;;;;;5058667;28;20439;-37
2023/01/14 03:17:11;;;;;;;9.50;2.10;;;4.20;1.00;;;;;;5058565;28;20477;-36
2023/01/14 03:19:40;;;;;;;6.17;2.30;;;4.20;1.00;;;;;;5058974;28;20436;-37
2023/01/14 03:22:06;;;;;;;5.60;2.13;;;4.10;1.00;;;;;;5059355;28;20511;-37
2023/01/14 03:24:40;;;;;;;10.10;2.37;;;4.00;1.00;;;;;;5058749;28;20912;-38
2023/01/14 03:27:08;;;;;;;6.27;2.07;;;4.00;1.00;;;;;;5058416;28;20524;-37
2023/01/14 03:29:55;;;;;;;4.97;2.00;;;4.10;1.00;;;;;;5058589;28;20500;-36
2023/01/14 03:32:29;;;;;;;3.63;1.57;;;4.10;1.00;;;;;;5058194;28;20669;-36
2023/01/14 03:35:03;;;;;;;6.20;2.00;;;4.10;1.00;;;;;;5058154;28;20455;-36
2023/01/14 03:37:29;;;;;;;4.30;2.00;;;4.10;7.90;;;;;;5059667;28;20404;-35
2023/01/14 03:39:57;;;;;;;4.47;2.50;;;4.10;11.90;;;;;;5057032;28;20424;-36
2023/01/14 03:42:26;;;;;;;6.03;1.87;;;4.10;51.20;;;;;;5057272;28;20940;-36
2023/01/14 03:45:03;;;;;;;5.93;1.40;;;4.10;37.70;;;;;;5056378;28;20926;-37
2023/01/14 03:47:34;;;;;;;7.80;1.83;;;4.10;11.00;;;;;;5039648;28;20416;-36
2023/01/14 03:50:08;;;;;;;4.57;1.97;;;4.10;34.50;;;;;;5075555;28;20469;-36
2023/01/14 03:52:58;;;;;;;7.50;1.37;;;4.10;13.70;;;;;;5076366;28;20462;-37
2023/01/14 03:55:29;;;;;;;8.53;1.30;;;4.00;31.50;;;;;;5077960;28;20459;-36
2023/01/14 03:58:07;;;;;;;4.30;1.37;;;4.00;45.80;;;;;;5078652;28;20723;-36
2023/01/14 04:00:48;;;;;;;6.03;1.50;;;3.90;71.80;;;;;;5077036;28;20803;-36
2023/01/14 04:03:14;;;;;;;6.13;1.70;;;4.00;78.50;;;;;;5077797;28;21036;-37
2023/01/14 04:05:40;;;;;;;4.70;1.40;;;3.90;50.00;;;;;;5077544;28;20412;-37
2023/01/14 04:08:06;;;;;;;5.40;1.70;;;3.90;61.50;;;;;;5076971;28;20425;-37
2023/01/14 04:10:32;;;;;;;6.43;1.60;;;3.90;53.30;;;;;;5077302;28;20407;-38
2023/01/14 04:15:42;;;;;;;4.73;1.33;;;4.00;9.00;;;;;;5076771;28;20490;-37
2023/01/14 04:18:08;;;;;;;3.20;1.17;;;4.10;3.80;;;;;;5076865;28;20830;-37
2023/01/14 04:20:33;;;;;;;6.80;2.00;;;4.10;1.00;;;;;;5077777;28;20185;-36
2023/01/14 04:22:59;;;;;;;5.50;1.47;;;4.10;1.00;;;;;;5078414;28;20243;-37
2023/01/14 04:25:25;;;;;;;2.60;1.20;;;4.10;1.00;;;;;;5078494;28;20235;-36
2023/01/14 04:27:50;;;;;;;13.10;1.80;;;4.10;1.00;;;;;;5078807;28;20188;-36
2023/01/14 04:30:16;;;;;;;4.40;1.30;;;4.10;1.00;;;;;;5078232;28;20230;-36
2023/01/14 04:32:42;;;;;;;2.90;1.50;;;4.20;1.00;;;;;;5078644;28;20184;-38
2023/01/14 04:35:08;;;;;;;10.47;2.10;;;4.20;1.00;;;;;;5078685;28;20738;-36
2023/01/14 04:37:33;;;;;;;7.10;1.73;;;4.20;1.00;;;;;;5078405;28;20576;-36
2023/01/14 04:39:59;;;;;;;6.43;1.50;;;4.20;1.00;;;;;;5078299;28;20420;-35
2023/01/14 04:42:27;;;;;;;7.60;2.73;;;4.20;1.00;;;;;;5077171;28;20200;-36
2023/01/14 04:44:59;;;;;;;7.60;1.93;;;4.20;1.00;;;;;;5077010;28;20181;-37
2023/01/14 04:47:25;;;;;;;4.27;1.20;;;4.20;1.00;;;;;;5076675;28;20560;-37
2023/01/14 04:49:50;;;;;;;8.40;2.67;;;4.20;1.00;;;;;;5077538;28;20470;-36
2023/01/14 04:52:16;;;;;;;5.40;1.70;;;4.20;1.00;;;;;;5075709;28;20426;-36
2023/01/14 04:54:42;;;;;;;9.73;1.90;;;4.20;1.00;;;;;;5068927;28;20550;-37
2023/01/14 04:57:08;;;;;;;6.37;1.90;;;4.20;1.00;;;;;;5057590;28;20284;-36
2023/01/14 04:59:34;;;;;;;7.87;1.67;;;4.30;1.00;;;;;;5057757;28;20444;-36
2023/01/14 05:01:59;;;;;;;7.33;2.03;;;4.30;1.00;;;;;;5057398;28;20520;-37
2023/01/14 05:04:25;;;;;;;3.93;1.43;;;4.30;1.00;;;;;;5057742;28;20213;-36
2023/01/14 05:06:50;;;;;;;6.40;1.57;;;4.30;1.00;;;;;;5056935;28;20200;-36
2023/01/14 05:09:16;;;;;;;17.50;2.30;;;4.30;1.00;;;;;;5057570;28;20251;-37
2023/01/14 05:11:42;;;;;;;7.07;1.50;;;4.30;1.00;;;;;;5057533;28;20181;-36
2023/01/14 05:14:07;;;;;;;7.50;1.90;;;4.30;1.00;;;;;;5057431;28;20204;-37
2023/01/14 05:16:33;;;;;;;6.83;1.60;;;4.30;1.00;;;;;;5057472;28;20202;-36
2023/01/14 05:18:58;;;;;;;3.83;1.50;;;4.30;1.00;;;;;;5057644;28;20477;-36
2023/01/14 05:21:24;;;;;;;4.90;1.50;;;4.20;1.00;;;;;;5057178;28;20190;-37
2023/01/14 05:23:50;;;;;;;7.80;1.90;;;4.20;1.00;;;;;;5057229;28;20482;-37
2023/01/14 05:26:16;;;;;;;4.63;1.90;;;4.20;1.00;;;;;;5057630;28;20713;-37
2023/01/14 05:28:42;;;;;;;7.43;2.70;;;4.20;1.00;;;;;;5057216;28;20442;-37
2023/01/14 05:31:07;;;;;;;8.40;2.00;;;4.30;1.00;;;;;;5057060;28;20711;-36
2023/01/14 05:33:33;;;;;;;5.00;1.47;;;4.30;1.00;;;;;;5056375;28;20193;-37
2023/01/14 05:36:00;;;;;;;5.03;1.70;;;4.20;99.90;;;;;;5055294;28;20213;-37
2023/01/14 05:38:26;;;;;;;2.50;1.30;;;4.30;99.90;;;;;;5055046;28;20462;-36
2023/01/14 05:40:52;;;;;;;5.60;1.47;;;4.30;99.90;;;;;;5056550;28;20435;-37
2023/01/14 05:46:08;;;;;;;4.77;1.33;;;4.40;99.90;;;;;;5055127;28;20895;-37
2023/01/14 05:48:34;;;;;;;5.90;1.50;;;4.40;99.90;;;;;;5055008;28;20843;-36
2023/01/14 05:51:01;;;;;;;7.73;1.83;;;4.50;99.90;;;;;;5054864;28;20515;-37
2023/01/14 05:53:27;;;;;;;4.40;1.27;;;4.50;99.90;;;;;;5055217;28;20440;-37
2023/01/14 05:55:54;;;;;;;9.50;2.60;;;4.60;99.90;;;;;;5054973;28;20529;-36
2023/01/14 05:58:20;;;;;;;5.73;1.53;;;4.70;1.00;;;;;;5055260;28;20620;-36
2023/01/14 06:06:26;;;;;;;5.80;1.73;;;4.60;57.00;;;;;;5055460;28;20964;-36
2023/01/14 06:08:53;;;;;;;6.67;1.90;;;4.60;14.00;;;;;;5056163;28;20431;-37
2023/01/14 06:11:20;;;;;;;5.43;1.50;;;4.60;10.80;;;;;;5060735;28;20416;-37
2023/01/14 06:13:47;;;;;;;7.33;1.93;;;4.50;86.20;;;;;;5061261;28;20443;-42
2023/01/14 06:16:13;;;;;;;6.27;1.40;;;4.60;18.50;;;;;;5061288;28;20459;-37
2023/01/14 06:18:42;;;;;;;3.30;1.20;;;4.60;18.20;;;;;;5061605;28;20435;-36
2023/01/14 06:21:14;;;;;;;6.47;2.10;;;4.50;95.20;;;;;;5060676;28;20749;-36
2023/01/14 06:23:40;;;;;;;8.93;2.00;;;4.60;12.60;;;;;;5060863;28;20431;-36
2023/01/14 06:26:17;;;;;;;10.37;1.67;;;4.60;1.00;;;;;;5059405;28;20426;-37
2023/01/14 06:28:43;;;;;;;5.60;1.60;;;4.60;1.00;;;;;;5060140;28;20517;-38
2023/01/14 06:31:14;;;;;;;9.63;2.13;;;4.60;1.00;;;;;;5059690;28;20905;-37
2023/01/14 06:33:40;;;;;;;9.67;2.13;;;4.60;1.00;;;;;;5059302;28;20596;-37
2023/01/14 06:36:07;;;;;;;8.17;2.33;;;4.60;1.00;;;;;;5041346;28;20467;-36
2023/01/14 06:38:33;;;;;;;9.07;2.10;;;4.70;1.00;;;;;;5060152;28;20816;-37
2023/01/14 06:41:03;;;;;;;7.40;2.07;;;4.60;1.00;;;;;;5060044;28;20412;-37
2023/01/14 06:43:29;;;;;;;7.30;2.07;;;4.70;1.00;;;;;;5060203;28;20774;-36
2023/01/14 06:45:56;;;;;;;10.03;1.90;;;4.70;1.00;;;;;;5060538;28;20514;-37
2023/01/14 06:48:22;;;;;;;10.10;2.07;;;4.70;1.00;;;;;;5059048;28;20193;-36
2023/01/14 06:50:47;;;;;;;7.60;1.90;;;4.70;1.00;;;;;;5059594;28;20481;-37
2023/01/14 06:53:13;;;;;;;9.40;2.00;;;4.80;1.00;;;;;;5059917;28;20835;-36
2023/01/14 06:55:39;;;;;;;7.17;2.00;;;4.80;1.00;;;;;;5059634;28;20201;-37
2023/01/14 06:58:04;;;;;;;5.60;2.00;;;4.90;1.00;;;;;;5058833;28;20247;-37
2023/01/14 07:00:30;;;;;;;6.90;2.10;;;4.90;1.00;;;;;;5057938;28;20204;-36
2023/01/14 07:02:56;;;;;;;7.00;1.93;;;4.90;1.00;;;;;;5058852;28;20178;-36
2023/01/14 07:05:22;;;;;;;10.97;2.20;;;5.00;1.00;;;;;;5057757;28;20527;-36
2023/01/14 07:07:48;;;;;;;7.10;2.40;;;4.90;1.00;;;;;;5056204;28;20733;-36
2023/01/14 07:10:15;;;;;;;6.80;2.40;;;5.00;1.00;;;;;;5056289;28;20416;-36
2023/01/14 07:12:47;;;;;;;11.47;2.03;;;5.00;1.00;;;;;;5057052;28;20909;-37
2023/01/14 07:15:14;;;;;;;7.10;2.13;;;5.00;1.00;;;;;;5056528;28;20501;-36
2023/01/14 07:17:40;;;;;;;8.93;2.50;;;5.00;1.00;;;;;;5056258;28;20458;-37
2023/01/14 07:20:07;;;;;;;9.40;2.10;;;5.00;1.00;;;;;;5054355;28;20428;-37
2023/01/14 07:22:33;;;;;;;4.87;1.93;;;5.00;1.00;;;;;;5056145;28;20239;-37
2023/01/14 07:25:01;;;;;;;8.53;2.03;;;5.10;1.00;;;;;;5055736;28;20527;-36
2023/01/14 07:27:29;;;;;;;10.03;2.97;;;5.10;1.00;;;;;;5055587;28;20178;-37
2023/01/14 07:29:56;;;;;;;11.33;2.40;;;5.10;1.00;;;;;;5054303;28;20731;-38
2023/01/14 07:32:21;;;;;;;12.93;2.70;;;5.10;1.00;;;;;;5056344;28;20787;-36
2023/01/14 07:34:47;;;;;;;6.30;2.30;;;5.20;1.00;;;;;;5056116;28;20458;-36
2023/01/14 07:37:13;;;;;;;12.97;1.90;;;5.20;1.00;;;;;;5056940;28;20201;-37
2023/01/14 07:39:38;;;;;;;6.40;2.03;;;5.20;1.00;;;;;;5056585;28;20258;-36
2023/01/14 07:42:04;;;;;;;7.30;1.90;;;5.20;1.00;;;;;;5057425;28;20180;-37
2023/01/14 07:44:31;;;;;;;10.90;3.10;;;5.30;1.00;;;;;;5056982;28;20174;-36
2023/01/14 07:46:57;;;;;;;5.77;2.20;;;5.30;1.00;;;;;;5057505;28;20173;-37
2023/01/14 07:49:24;;;;;;;9.33;1.80;;;5.30;1.00;;;;;;5057625;28;20468;-38
2023/01/14 07:51:50;;;;;;;13.00;2.97;;;5.30;16.60;;;;;;5057488;28;20408;-38
2023/01/14 07:54:16;;;;;;;7.37;2.43;;;5.30;2.70;;;;;;5055404;28;20788;-38
2023/01/14 07:56:42;;;;;;;5.10;2.00;;;5.30;52.80;;;;;;5055620;28;20894;-37
2023/01/14 07:59:08;;;;;;;4.80;1.70;;;5.40;8.80;;;;;;5053043;28;21074;-37
2023/01/14 08:01:33;;;;;;;7.13;2.10;;;5.40;1.10;;;;;;5039800;28;20184;-37
2023/01/14 08:03:59;;;;;;;5.60;2.10;;;5.40;1.00;;;;;;5035390;28;20189;-37
2023/01/14 08:06:25;;;;;;;6.00;2.27;;;5.50;1.00;;;;;;5035536;28;20202;-38
2023/01/14 08:08:51;;;;;;;7.53;2.13;;;5.50;1.00;;;;;;5036996;28;20426;-38
2023/01/14 08:11:17;;;;;;;9.97;2.37;;;5.60;1.00;;;;;;5036298;28;20479;-37
2023/01/14 08:13:43;;;;;;;8.90;2.07;;;5.60;1.00;;;;;;5035805;28;20228;-37
2023/01/14 08:16:09;;;;;;;8.20;2.07;;;5.60;1.00;;;;;;5057690;28;20891;-38
2023/01/14 08:18:38;;;;;;;8.27;2.40;;;5.70;1.00;;;;;;5057397;28;20243;-35
2023/01/14 08:21:05;;;;;;;10.23;2.27;;;5.70;1.00;;;;;;5056723;28;20412;-38
2023/01/14 08:23:32;;;;;;;4.30;2.30;;;5.80;1.00;;;;;;5057223;28;20463;-38
2023/01/14 08:26:04;;;;;;;10.60;3.00;;;5.90;1.00;;;;;;5056890;28;20408;-39
2023/01/14 08:28:29;;;;;;;7.10;1.93;;;6.00;1.00;;;;;;5057882;28;20424;-38
2023/01/14 08:31:19;;;;;;;12.87;2.70;;;6.10;99.90;;;;;;5056937;28;20449;-38
2023/01/14 08:33:45;;;;;;;4.83;1.50;;;6.20;99.90;;;;;;5057674;28;20193;-38
2023/01/14 08:36:14;;;;;;;7.90;2.33;;;6.20;99.90;;;;;;5057549;28;20475;-38
2023/01/14 08:38:41;;;;;;;4.47;1.70;;;6.30;99.90;;;;;;5057186;28;20435;-38
2023/01/14 08:41:09;;;;;;;8.43;2.53;;;6.30;99.90;;;;;;5057673;28;20849;-38
2023/01/14 08:43:35;;;;;;;6.23;1.90;;;6.30;99.90;;;;;;5057425;28;20428;-38
2023/01/14 08:46:02;;;;;;;7.60;1.93;;;6.20;99.90;;;;;;5056313;28;20767;-38
2023/01/14 08:48:28;;;;;;;7.27;2.37;;;6.30;99.90;;;;;;5056300;28;20463;-37
2023/01/14 08:50:58;;;;;;;11.13;2.57;;;6.30;99.90;;;;;;5057954;28;20823;-37
2023/01/14 08:53:23;;;;;;;4.90;1.70;;;6.30;99.90;;;;;;5058065;28;20447;-38
2023/01/14 08:55:49;;;;;;;5.57;2.20;;;6.40;99.90;;;;;;5058191;28;20464;-38
2023/01/14 08:58:15;;;;;;;7.53;3.63;;;6.40;99.90;;;;;;5067158;28;20189;-38
2023/01/14 09:00:40;;;;;;;5.23;2.40;;;6.40;1.00;;;;;;5068335;28;20553;-40
2023/01/14 09:03:06;;;;;;;5.60;2.07;;;6.50;99.90;;;;;;5064146;28;20182;-38
2023/01/14 09:05:32;;;;;;;7.23;2.27;;;6.50;99.90;;;;;;5065594;28;20181;-39
2023/01/14 09:19:04;;;;;;;4.83;2.23;;;6.60;1.00;;;;;;5055221;28;20426;-38
2023/01/14 09:21:29;;;;;;;8.00;1.63;;;6.60;1.00;;;;;;5056030;28;20412;-38
2023/01/14 09:23:55;;;;;;;6.70;1.97;;;6.70;1.00;;;;;;5056191;28;20618;-38
2023/01/14 09:26:20;;;;;;;3.30;1.40;;;6.70;23.40;;;;;;5055403;28;20534;-39
2023/01/14 09:28:47;;;;;;;5.60;1.53;;;6.70;90.40;;;;;;5056593;28;20181;-38
2023/01/14 09:31:12;;;;;;;4.93;1.43;;;6.70;93.30;;;;;;5039180;28;20473;-37
2023/01/14 09:33:38;;;;;;;8.93;1.80;;;6.80;99.90;;;;;;5057217;28;20424;-40
2023/01/14 09:36:04;;;;;;;4.10;1.17;;;6.90;99.90;;;;;;5055108;28;20667;-37
2023/01/14 09:38:30;;;;;;;6.30;1.60;;;7.00;99.90;;;;;;5054282;28;20181;-38
2023/01/14 09:40:56;;;;;;;3.33;1.97;;;7.10;99.90;;;;;;5053763;28;20430;-38
2023/01/14 09:43:29;;;;;;;4.00;1.57;;;7.20;18.60;;;;;;5054833;28;20181;-38
2023/01/14 09:46:00;;;;;;;3.30;1.20;;;7.20;1.00;;;;;;5054602;28;20503;-40
2023/01/14 09:48:29;;;;;;;4.93;1.53;;;7.30;1.00;;;;;;5055916;28;20463;-38
2023/01/14 09:51:04;;;;;;;10.33;1.83;;;7.40;1.00;;;;;;5055352;28;20431;-38
2023/01/14 09:53:47;;;;;;;4.97;1.57;;;7.50;1.00;;;;;;5054747;28;20435;-39
2023/01/14 09:56:20;;;;;;;6.53;1.47;;;7.60;99.90;;;;;;5055830;28;20517;-39
2023/01/14 09:58:54;;;;;;;5.40;1.90;;;7.70;99.90;;;;;;5055181;28;20707;-39
2023/01/14 10:01:41;;;;;;;3.30;1.50;;;7.80;1.00;;;;;;5055026;28;20416;-39
2023/01/14 10:04:30;;;;;;;4.23;1.47;;;7.80;1.00;;;;;;5055247;28;20420;-38
2023/01/14 10:06:57;;;;;;;5.87;1.30;;;7.90;1.00;;;;;;5024988;28;20427;-39
2023/01/14 10:09:34;;;;;;;5.30;1.57;;;7.90;99.90;;;;;;5055482;28;20421;-38
2023/01/14 10:12:01;;;;;;;3.80;1.30;;;7.70;99.90;;;;;;5055823;28;20408;-40
2023/01/14 10:14:39;;;;;;;3.63;1.50;;;7.70;99.90;;;;;;5056228;28;20818;-39
2023/01/14 10:17:07;;;;;;;7.00;1.67;;;7.70;99.90;;;;;;5053741;28;20466;-40
2023/01/14 10:19:50;;;;;;;3.87;1.67;;;7.70;99.90;;;;;;5053609;28;20436;-38
2023/01/14 10:22:28;;;;;;;8.60;1.60;;;7.60;99.90;;;;;;5054835;28;20404;-38
2023/01/14 10:24:53;;;;;;;3.23;1.43;;;7.60;99.90;;;;;;5055057;28;20436;-38
2023/01/14 10:27:19;;;;;;;3.30;1.43;;;7.60;99.90;;;;;;5053034;28;20676;-38
2023/01/14 10:29:48;;;;;;;6.70;2.00;;;7.70;93.40;;;;;;5053578;28;20546;-38
2023/01/14 10:32:16;;;;;;;3.60;1.43;;;7.80;58.40;;;;;;5055234;28;20518;-38
2023/01/14 10:34:44;;;;;;;5.60;1.60;;;7.90;1.00;;;;;;5055351;28;20416;-38
2023/01/14 10:37:10;;;;;;;6.93;1.87;;;7.80;72.30;;;;;;5037743;28;20470;-39
2023/01/14 10:39:37;;;;;;;3.47;1.27;;;7.90;93.80;;;;;;5052426;28;20424;-38
2023/01/14 10:42:04;;;;;;;7.53;1.80;;;7.90;1.00;;;;;;5052291;28;20486;-37
2023/01/14 10:44:38;;;;;;;3.37;1.37;;;7.90;1.00;;;;;;5054010;28;20455;-36
2023/01/14 10:47:13;;;;;;;3.10;1.53;;;8.10;1.00;;;;;;5053099;28;20495;-37
2023/01/14 10:49:40;;;;;;;2.97;1.50;;;8.10;1.00;;;;;;5053158;28;20483;-37
2023/01/14 10:52:26;;;;;;;3.53;1.73;;;8.10;1.00;;;;;;5051795;28;20440;-38
2023/01/14 10:55:11;;;;;;;5.13;1.40;;;8.10;1.00;;;;;;5055933;28;20534;-40
2023/01/14 10:57:43;;;;;;;3.80;1.87;;;8.10;1.00;;;;;;5056902;28;20420;-37
2023/01/14 11:00:35;;;;;;;2.30;1.30;;;8.20;1.00;;;;;;5057488;28;20397;-37
2023/01/14 11:03:03;;;;;;;2.50;1.33;;;8.10;1.00;;;;;;5057084;28;20946;-39
2023/01/14 11:05:34;;;;;;;2.67;1.53;;;8.40;1.00;;;;;;5056501;28;20440;-37
2023/01/14 11:08:22;;;;;;;5.60;1.40;;;8.50;1.00;;;;;;5057346;28;20429;-37
2023/01/14 11:11:15;;;;;;;3.60;1.53;;;8.60;92.00;;;;;;5044440;28;20449;-38
2023/01/14 11:13:48;;;;;;;2.90;1.10;;;8.80;99.90;;;;;;5036083;28;20440;-38
2023/01/14 11:16:25;;;;;;;2.10;1.13;;;8.80;99.90;;;;;;5053066;28;20958;-36
2023/01/14 11:19:02;;;;;;;3.87;1.10;;;9.00;1.00;;;;;;5058525;28;20474;-37
2023/01/14 11:21:31;;;;;;;3.10;1.10;;;9.20;99.90;;;;;;5044753;28;20759;-38
2023/01/14 11:24:01;;;;;;;4.67;1.53;;;9.40;99.90;;;;;;5056213;28;20908;-38
2023/01/14 11:26:28;;;;;;;3.57;1.70;;;9.40;1.00;;;;;;5056987;28;20408;-39
2023/01/14 11:29:20;;;;;;;3.33;1.57;;;9.40;1.00;;;;;;5038313;28;20431;-38
2023/01/14 11:31:47;;;;;;;2.07;1.10;;;9.20;1.00;;;;;;5037114;28;20443;-38
2023/01/14 11:34:28;;;;;;;2.10;1.17;;;8.90;1.00;;;;;;5043818;28;20440;-37
2023/01/14 11:37:09;;;;;;;1.90;1.10;;;8.90;99.90;;;;;;5056895;28;20464;-38
2023/01/14 11:39:36;;;;;;;1.70;1.03;;;8.80;1.00;;;;;;5058214;28;20870;-38
2023/01/14 11:42:26;;;;;;;4.37;1.47;;;8.60;1.00;;;;;;5058528;28;20413;-39
2023/01/14 11:45:10;;;;;;;4.37;1.33;;;8.70;1.00;;;;;;5058475;28;20479;-37
2023/01/14 11:47:45;;;;;;;2.50;1.50;;;8.50;1.00;;;;;;5057916;28;20405;-37
2023/01/14 11:50:22;;;;;;;3.03;1.30;;;8.60;1.00;;;;;;5057882;28;20530;-39
2023/01/14 11:52:57;;;;;;;3.40;1.50;;;8.60;17.70;;;;;;5057638;28;20486;-37
2023/01/14 11:55:23;;;;;;;6.30;1.40;;;8.70;1.00;;;;;;5058096;28;20523;-37
2023/01/14 11:57:48;;;;;;;3.50;1.30;;;8.60;1.00;;;;;;5056421;28;20838;-37
2023/01/14 12:00:14;;;;;;;1.73;1.30;;;8.60;1.00;;;;;;5056599;28;20439;-38
2023/01/14 12:02:44;;;;;;;2.57;1.20;;;8.50;1.00;;;;;;5057551;28;20557;-37
2023/01/14 12:05:19;;;;;;;4.10;1.43;;;8.60;1.00;;;;;;5055784;28;20417;-38
2023/01/14 12:07:56;;;;;;;3.03;1.33;;;8.60;1.00;;;;;;5055576;28;20415;-36
2023/01/14 12:10:26;;;;;;;4.10;1.60;;;8.60;1.00;;;;;;5054522;28;20422;-37
2023/01/14 12:19:37;;;;;;;2.30;1.10;;;8.60;99.90;;;;;;5055098;28;20419;-38
2023/01/14 12:22:41;;;;;;;3.13;1.90;;;8.60;99.90;;;;;;5056897;28;20816;-37
2023/01/14 12:25:29;;;;;;;1.40;1.07;;;8.50;99.90;;;;;;5048717;28;20514;-37
2023/01/14 12:28:10;;;;;;;6.90;1.47;;;8.50;99.90;;;;;;5054649;28;20427;-37
2023/01/14 12:30:39;;;;;;;3.33;1.13;;;8.40;1.00;;;;;;5055691;28;20423;-37
2023/01/14 12:33:32;;;;;;;2.10;1.40;;;8.40;99.90;;;;;;5052815;28;20412;-37
2023/01/14 12:36:14;;;;;;;3.23;1.63;;;8.40;1.00;;;;;;5053321;28;20455;-36
2023/01/14 12:47:13;;;;;;;4.00;2.83;;;8.40;99.90;;;;;;5057035;28;20831;-37
2023/01/14 12:49:39;;;;;;;2.97;1.10;;;8.40;99.90;;;;;;5054103;28;20571;-37
2023/01/14 12:52:06;;;;;;;3.67;1.30;;;8.40;17.10;;;;;;5053743;28;20190;-37
2023/01/14 12:54:34;;;;;;;4.37;1.90;;;8.40;97.10;;;;;;5054786;28;20436;-37
2023/01/14 12:57:01;;;;;;;2.80;1.93;;;8.40;99.90;;;;;;5054698;28;20499;-37
2023/01/14 12:59:37;;;;;;;4.30;1.20;;;8.40;99.90;;;;;;5055442;28;20728;-38
2023/01/14 13:02:48;;;;;;;10.77;1.93;;;8.40;19.70;;;;;;5054368;28;20469;-37
2023/01/14 13:05:16;;;;;;;4.57;1.30;;;8.40;1.00;;;;;;5052352;28;20534;-37
2023/01/14 13:08:32;;;;;;;3.83;1.90;;;8.40;1.00;;;;;;5055190;28;20420;-37
2023/01/14 13:11:11;;;;;;;4.03;1.47;;;8.50;1.00;;;;;;5054633;28;20471;-37
2023/01/14 13:17:00;;;;;;;3.53;2.00;;;8.60;1.00;;;;;;5055967;28;20476;-38
2023/01/14 13:19:26;;;;;;;6.03;1.50;;;8.60;99.90;;;;;;5052891;28;20456;-37
2023/01/14 13:22:00;;;;;;;3.67;1.63;;;8.60;99.90;;;;;;5054393;28;20590;-38
2023/01/14 13:27:48;;;;;;;3.13;1.53;;;8.70;58.40;;;;;;5055124;28;20411;-37
2023/01/14 13:30:42;;;;;;;2.70;1.50;;;8.70;1.00;;;;;;5070968;28;20814;-39
2023/01/14 13:33:19;;;;;;;2.33;1.70;;;8.70;1.00;;;;;;5055217;28;20736;-37
2023/01/14 13:36:08;;;;;;;3.00;1.63;;;8.70;1.00;;;;;;5053880;28;20514;-39
2023/01/14 13:38:46;;;;;;;3.47;1.93;;;8.70;1.00;;;;;;5055043;28;20448;-38
2023/01/14 13:48:18;;;;;;;6.07;1.80;;;8.70;1.00;;;;;;5051070;28;21053;-38
2023/01/14 13:50:43;;;;;;;3.23;2.20;;;8.80;1.00;;;;;;5040621;28;20477;-39
2023/01/14 13:53:29;;;;;;;5.33;1.80;;;8.80;99.90;;;;;;5054091;28;20475;-40
2023/01/14 13:55:57;;;;;;;4.10;1.77;;;8.80;99.90;;;;;;5052813;28;20294;-38
2023/01/14 13:58:44;;;;;;;3.97;1.93;;;8.80;63.50;;;;;;5035880;28;20437;-38
2023/01/14 14:01:29;;;;;;;4.20;1.37;;;8.90;1.00;;;;;;5049632;28;20432;-36
2023/01/14 14:03:57;;;;;;;4.27;1.50;;;8.80;1.00;;;;;;5050184;28;20448;-39
2023/01/14 14:06:22;;;;;;;2.27;1.40;;;8.80;1.00;;;;;;5053949;28;20447;-38
2023/01/14 14:08:52;;;;;;;2.03;1.47;;;8.80;1.00;;;;;;5054285;28;20429;-39
2023/01/14 14:15:17;;;;;;;3.40;1.70;;;8.90;1.00;;;;;;5056685;28;20400;-39
2023/01/14 14:17:43;;;;;;;4.20;2.93;;;8.90;1.00;;;;;;5051056;28;20484;-38
2023/01/14 14:20:16;;;;;;;4.60;1.63;;;8.90;1.00;;;;;;5050092;28;20524;-38